sensor_id;sensor_type;location;lat;lon;timestamp;P1;durP1;ratioP1;P2;durP2;ratioP2
51216;SDS011;37283;49.760;8.648;2023-04-06T00:00:08;4.88;;;3.10;;
51216;SDS011;37283;49.760;8.648;2023-04-06T00:02:35;6.10;;;3.25;;
51216;SDS011;37283;49.760;8.648;2023-04-06T00:05:02;5.60;;;3.42;;
51216;SDS011;37283;49.760;8.648;2023-04-06T00:07:29;5.40;;;3.47;;
51216;SDS011;37283;49.760;8.648;2023-04-06T00:09:56;5.03;;;3.88;;
51216;SDS011;37283;49.760;8.648;2023-04-06T00:12:22;6.47;;;3.50;;
51216;SDS011;37283;49.760;8.648;2023-04-06T00:14:49;5.57;;;3.85;;
51216;SDS011;37283;49.760;8.648;2023-04-06T00:17:15;5.65;;;4.00;;
51216;SDS011;37283;49.760;8.648;2023-04-06T00:19:43;5.53;;;4.03;;
51216;SDS011;37283;49.760;8.648;2023-04-06T00:22:09;7.55;;;3.83;;
51216;SDS011;37283;49.760;8.648;2023-04-06T00:24:36;6.55;;;3.97;;
51216;SDS011;37283;49.760;8.648;2023-04-06T00:27:02;5.57;;;3.78;;
51216;SDS011;37283;49.760;8.648;2023-04-06T00:29:29;5.53;;;3.70;;
51216;SDS011;37283;49.760;8.648;2023-04-06T00:31:56;5.82;;;3.78;;
51216;SDS011;37283;49.760;8.648;2023-04-06T00:34:22;4.45;;;3.35;;
51216;SDS011;37283;49.760;8.648;2023-04-06T00:36:49;4.75;;;3.72;;
51216;SDS011;37283;49.760;8.648;2023-04-06T00:39:16;5.90;;;3.88;;
51216;SDS011;37283;49.760;8.648;2023-04-06T00:41:46;4.85;;;3.20;;
51216;SDS011;37283;49.760;8.648;2023-04-06T00:44:16;5.45;;;3.28;;
51216;SDS011;37283;49.760;8.648;2023-04-06T00:46:43;6.85;;;3.60;;
51216;SDS011;37283;49.760;8.648;2023-04-06T00:49:10;4.75;;;3.35;;
51216;SDS011;37283;49.760;8.648;2023-04-06T00:51:37;4.43;;;3.10;;
51216;SDS011;37283;49.760;8.648;2023-04-06T00:54:03;6.35;;;3.70;;
51216;SDS011;37283;49.760;8.648;2023-04-06T00:56:33;5.15;;;3.50;;
51216;SDS011;37283;49.760;8.648;2023-04-06T00:59:00;5.85;;;3.92;;
51216;SDS011;37283;49.760;8.648;2023-04-06T01:01:27;5.38;;;4.10;;
51216;SDS011;37283;49.760;8.648;2023-04-06T01:03:58;5.43;;;3.50;;
51216;SDS011;37283;49.760;8.648;2023-04-06T01:06:25;6.40;;;3.63;;
51216;SDS011;37283;49.760;8.648;2023-04-06T01:08:59;7.82;;;3.60;;
51216;SDS011;37283;49.760;8.648;2023-04-06T01:11:26;5.90;;;3.45;;
51216;SDS011;37283;49.760;8.648;2023-04-06T01:13:53;8.20;;;3.80;;
51216;SDS011;37283;49.760;8.648;2023-04-06T01:16:33;4.68;;;3.30;;
51216;SDS011;37283;49.760;8.648;2023-04-06T01:19:11;6.10;;;3.40;;
51216;SDS011;37283;49.760;8.648;2023-04-06T01:21:43;6.72;;;3.50;;
51216;SDS011;37283;49.760;8.648;2023-04-06T01:24:26;6.90;;;3.75;;
51216;SDS011;37283;49.760;8.648;2023-04-06T01:27:12;6.30;;;3.53;;
51216;SDS011;37283;49.760;8.648;2023-04-06T01:30:05;5.07;;;3.58;;
51216;SDS011;37283;49.760;8.648;2023-04-06T01:32:40;4.78;;;3.15;;
51216;SDS011;37283;49.760;8.648;2023-04-06T01:35:09;5.60;;;3.20;;
51216;SDS011;37283;49.760;8.648;2023-04-06T01:37:43;7.25;;;3.35;;
51216;SDS011;37283;49.760;8.648;2023-04-06T01:40:13;5.50;;;3.17;;
51216;SDS011;37283;49.760;8.648;2023-04-06T01:42:45;5.70;;;3.70;;
51216;SDS011;37283;49.760;8.648;2023-04-06T01:45:19;5.45;;;3.80;;
51216;SDS011;37283;49.760;8.648;2023-04-06T01:47:46;8.60;;;3.65;;
51216;SDS011;37283;49.760;8.648;2023-04-06T01:50:12;6.22;;;3.47;;
51216;SDS011;37283;49.760;8.648;2023-04-06T01:52:43;5.28;;;3.90;;
51216;SDS011;37283;49.760;8.648;2023-04-06T01:55:11;7.88;;;3.47;;
51216;SDS011;37283;49.760;8.648;2023-04-06T01:57:56;7.28;;;3.83;;
51216;SDS011;37283;49.760;8.648;2023-04-06T02:00:33;5.80;;;3.83;;
51216;SDS011;37283;49.760;8.648;2023-04-06T02:03:00;4.50;;;3.80;;
51216;SDS011;37283;49.760;8.648;2023-04-06T02:05:29;7.47;;;3.63;;
51216;SDS011;37283;49.760;8.648;2023-04-06T02:07:58;6.93;;;4.35;;
51216;SDS011;37283;49.760;8.648;2023-04-06T02:10:32;6.88;;;4.07;;
51216;SDS011;37283;49.760;8.648;2023-04-06T02:13:05;4.65;;;3.80;;
51216;SDS011;37283;49.760;8.648;2023-04-06T02:15:31;5.80;;;4.15;;
51216;SDS011;37283;49.760;8.648;2023-04-06T02:17:58;7.90;;;4.15;;
51216;SDS011;37283;49.760;8.648;2023-04-06T02:20:25;5.47;;;4.07;;
51216;SDS011;37283;49.760;8.648;2023-04-06T02:22:52;6.43;;;4.00;;
51216;SDS011;37283;49.760;8.648;2023-04-06T02:25:19;8.10;;;4.28;;
51216;SDS011;37283;49.760;8.648;2023-04-06T02:27:45;6.78;;;4.47;;
51216;SDS011;37283;49.760;8.648;2023-04-06T02:30:12;5.90;;;4.40;;
51216;SDS011;37283;49.760;8.648;2023-04-06T02:32:38;6.25;;;4.65;;
51216;SDS011;37283;49.760;8.648;2023-04-06T02:35:05;7.53;;;4.68;;
51216;SDS011;37283;49.760;8.648;2023-04-06T02:37:33;7.32;;;4.25;;
51216;SDS011;37283;49.760;8.648;2023-04-06T02:40:00;10.75;;;4.90;;
51216;SDS011;37283;49.760;8.648;2023-04-06T02:42:29;5.55;;;4.22;;
51216;SDS011;37283;49.760;8.648;2023-04-06T02:44:56;4.75;;;4.13;;
51216;SDS011;37283;49.760;8.648;2023-04-06T02:47:26;5.95;;;4.72;;
51216;SDS011;37283;49.760;8.648;2023-04-06T02:49:53;6.10;;;4.38;;
51216;SDS011;37283;49.760;8.648;2023-04-06T02:52:20;6.72;;;4.13;;
51216;SDS011;37283;49.760;8.648;2023-04-06T02:54:46;7.47;;;4.63;;
51216;SDS011;37283;49.760;8.648;2023-04-06T02:57:18;8.48;;;4.85;;
51216;SDS011;37283;49.760;8.648;2023-04-06T02:59:45;6.18;;;4.40;;
51216;SDS011;37283;49.760;8.648;2023-04-06T03:02:17;6.75;;;4.40;;
51216;SDS011;37283;49.760;8.648;2023-04-06T03:04:44;6.97;;;4.93;;
51216;SDS011;37283;49.760;8.648;2023-04-06T03:07:21;5.90;;;4.32;;
51216;SDS011;37283;49.760;8.648;2023-04-06T03:09:48;6.47;;;4.60;;
51216;SDS011;37283;49.760;8.648;2023-04-06T03:12:16;4.95;;;3.63;;
51216;SDS011;37283;49.760;8.648;2023-04-06T03:15:05;5.95;;;4.05;;
51216;SDS011;37283;49.760;8.648;2023-04-06T03:17:33;7.30;;;4.53;;
51216;SDS011;37283;49.760;8.648;2023-04-06T03:20:03;6.97;;;4.88;;
51216;SDS011;37283;49.760;8.648;2023-04-06T03:22:31;7.87;;;5.50;;
51216;SDS011;37283;49.760;8.648;2023-04-06T03:24:58;7.03;;;5.18;;
51216;SDS011;37283;49.760;8.648;2023-04-06T03:27:29;8.15;;;5.68;;
51216;SDS011;37283;49.760;8.648;2023-04-06T03:29:56;9.65;;;5.30;;
51216;SDS011;37283;49.760;8.648;2023-04-06T03:32:29;6.50;;;4.75;;
51216;SDS011;37283;49.760;8.648;2023-04-06T03:34:56;6.35;;;4.85;;
51216;SDS011;37283;49.760;8.648;2023-04-06T03:37:23;8.77;;;5.35;;
51216;SDS011;37283;49.760;8.648;2023-04-06T03:39:53;6.80;;;5.38;;
51216;SDS011;37283;49.760;8.648;2023-04-06T03:42:22;7.63;;;5.10;;
51216;SDS011;37283;49.760;8.648;2023-04-06T03:44:53;8.25;;;5.60;;
51216;SDS011;37283;49.760;8.648;2023-04-06T03:47:20;8.10;;;4.85;;
51216;SDS011;37283;49.760;8.648;2023-04-06T03:49:46;7.13;;;4.60;;
51216;SDS011;37283;49.760;8.648;2023-04-06T03:52:14;8.00;;;4.90;;
51216;SDS011;37283;49.760;8.648;2023-04-06T03:54:41;5.80;;;4.20;;
51216;SDS011;37283;49.760;8.648;2023-04-06T03:57:09;7.82;;;5.03;;
51216;SDS011;37283;49.760;8.648;2023-04-06T03:59:36;9.15;;;5.03;;
51216;SDS011;37283;49.760;8.648;2023-04-06T04:02:02;8.25;;;4.82;;
51216;SDS011;37283;49.760;8.648;2023-04-06T04:04:29;7.88;;;5.30;;
51216;SDS011;37283;49.760;8.648;2023-04-06T04:06:57;8.07;;;5.40;;
51216;SDS011;37283;49.760;8.648;2023-04-06T04:09:23;7.50;;;5.00;;
51216;SDS011;37283;49.760;8.648;2023-04-06T04:11:49;8.82;;;5.13;;
51216;SDS011;37283;49.760;8.648;2023-04-06T04:14:16;7.97;;;5.18;;
51216;SDS011;37283;49.760;8.648;2023-04-06T04:16:44;6.90;;;4.95;;
51216;SDS011;37283;49.760;8.648;2023-04-06T04:19:10;7.95;;;5.10;;
51216;SDS011;37283;49.760;8.648;2023-04-06T04:21:44;9.07;;;5.20;;
51216;SDS011;37283;49.760;8.648;2023-04-06T04:24:14;8.18;;;5.22;;
51216;SDS011;37283;49.760;8.648;2023-04-06T04:26:41;8.23;;;5.13;;
51216;SDS011;37283;49.760;8.648;2023-04-06T04:29:07;8.48;;;5.55;;
51216;SDS011;37283;49.760;8.648;2023-04-06T04:31:36;6.95;;;5.47;;
51216;SDS011;37283;49.760;8.648;2023-04-06T04:34:06;7.72;;;6.00;;
51216;SDS011;37283;49.760;8.648;2023-04-06T04:36:33;8.15;;;5.70;;
51216;SDS011;37283;49.760;8.648;2023-04-06T04:39:03;7.35;;;5.65;;
51216;SDS011;37283;49.760;8.648;2023-04-06T04:41:35;9.60;;;6.45;;
51216;SDS011;37283;49.760;8.648;2023-04-06T04:44:06;10.55;;;5.75;;
51216;SDS011;37283;49.760;8.648;2023-04-06T04:46:33;10.23;;;5.38;;
51216;SDS011;37283;49.760;8.648;2023-04-06T04:49:00;8.93;;;5.53;;
51216;SDS011;37283;49.760;8.648;2023-04-06T04:51:28;9.45;;;6.07;;
51216;SDS011;37283;49.760;8.648;2023-04-06T04:54:06;9.13;;;5.63;;
51216;SDS011;37283;49.760;8.648;2023-04-06T04:56:33;8.32;;;6.05;;
51216;SDS011;37283;49.760;8.648;2023-04-06T04:59:18;8.40;;;6.10;;
51216;SDS011;37283;49.760;8.648;2023-04-06T05:01:52;10.57;;;5.85;;
51216;SDS011;37283;49.760;8.648;2023-04-06T05:04:27;8.07;;;5.43;;
51216;SDS011;37283;49.760;8.648;2023-04-06T05:07:07;8.43;;;6.10;;
51216;SDS011;37283;49.760;8.648;2023-04-06T05:09:36;9.38;;;6.18;;
51216;SDS011;37283;49.760;8.648;2023-04-06T05:12:04;10.70;;;7.07;;
51216;SDS011;37283;49.760;8.648;2023-04-06T05:14:36;13.35;;;7.05;;
51216;SDS011;37283;49.760;8.648;2023-04-06T05:17:11;10.75;;;8.00;;
51216;SDS011;37283;49.760;8.648;2023-04-06T05:19:37;9.85;;;6.72;;
51216;SDS011;37283;49.760;8.648;2023-04-06T05:22:04;8.05;;;6.75;;
51216;SDS011;37283;49.760;8.648;2023-04-06T05:24:34;11.05;;;7.82;;
51216;SDS011;37283;49.760;8.648;2023-04-06T05:27:04;9.95;;;7.03;;
51216;SDS011;37283;49.760;8.648;2023-04-06T05:29:31;9.20;;;6.38;;
51216;SDS011;37283;49.760;8.648;2023-04-06T05:31:57;12.15;;;6.35;;
51216;SDS011;37283;49.760;8.648;2023-04-06T05:34:24;12.65;;;7.55;;
51216;SDS011;37283;49.760;8.648;2023-04-06T05:36:50;9.20;;;7.22;;
51216;SDS011;37283;49.760;8.648;2023-04-06T05:39:20;9.43;;;6.47;;
51216;SDS011;37283;49.760;8.648;2023-04-06T05:41:49;12.25;;;6.90;;
51216;SDS011;37283;49.760;8.648;2023-04-06T05:44:26;11.25;;;7.43;;
51216;SDS011;37283;49.760;8.648;2023-04-06T05:47:01;11.07;;;7.22;;
51216;SDS011;37283;49.760;8.648;2023-04-06T05:49:28;11.43;;;7.55;;
51216;SDS011;37283;49.760;8.648;2023-04-06T05:51:55;11.25;;;6.90;;
51216;SDS011;37283;49.760;8.648;2023-04-06T05:54:22;13.85;;;7.15;;
51216;SDS011;37283;49.760;8.648;2023-04-06T05:56:51;9.07;;;6.82;;
51216;SDS011;37283;49.760;8.648;2023-04-06T05:59:17;12.68;;;7.10;;
51216;SDS011;37283;49.760;8.648;2023-04-06T06:01:44;10.95;;;6.38;;
51216;SDS011;37283;49.760;8.648;2023-04-06T06:04:12;11.07;;;6.75;;
51216;SDS011;37283;49.760;8.648;2023-04-06T06:06:39;10.65;;;7.10;;
51216;SDS011;37283;49.760;8.648;2023-04-06T06:09:15;12.38;;;7.20;;
51216;SDS011;37283;49.760;8.648;2023-04-06T06:11:50;9.23;;;7.05;;
51216;SDS011;37283;49.760;8.648;2023-04-06T06:16:48;10.20;;;6.60;;
51216;SDS011;37283;49.760;8.648;2023-04-06T06:19:15;11.13;;;7.82;;
51216;SDS011;37283;49.760;8.648;2023-04-06T06:21:43;10.02;;;6.63;;
51216;SDS011;37283;49.760;8.648;2023-04-06T06:24:09;11.93;;;7.97;;
51216;SDS011;37283;49.760;8.648;2023-04-06T06:26:36;9.82;;;7.43;;
51216;SDS011;37283;49.760;8.648;2023-04-06T06:29:04;11.17;;;7.00;;
51216;SDS011;37283;49.760;8.648;2023-04-06T06:31:34;10.15;;;7.82;;
51216;SDS011;37283;49.760;8.648;2023-04-06T06:34:02;10.10;;;7.93;;
51216;SDS011;37283;49.760;8.648;2023-04-06T06:36:31;11.45;;;8.30;;
51216;SDS011;37283;49.760;8.648;2023-04-06T06:38:58;13.95;;;8.95;;
51216;SDS011;37283;49.760;8.648;2023-04-06T06:41:25;12.18;;;7.80;;
51216;SDS011;37283;49.760;8.648;2023-04-06T06:43:52;10.73;;;7.95;;
51216;SDS011;37283;49.760;8.648;2023-04-06T06:46:19;10.27;;;7.95;;
51216;SDS011;37283;49.760;8.648;2023-04-06T06:48:46;13.23;;;10.10;;
51216;SDS011;37283;49.760;8.648;2023-04-06T06:51:13;13.35;;;10.40;;
51216;SDS011;37283;49.760;8.648;2023-04-06T06:53:40;18.30;;;13.43;;
51216;SDS011;37283;49.760;8.648;2023-04-06T06:56:06;16.58;;;10.20;;
51216;SDS011;37283;49.760;8.648;2023-04-06T06:58:34;16.67;;;10.55;;
51216;SDS011;37283;49.760;8.648;2023-04-06T07:01:00;21.63;;;13.55;;
51216;SDS011;37283;49.760;8.648;2023-04-06T07:03:29;19.90;;;14.55;;
51216;SDS011;37283;49.760;8.648;2023-04-06T07:05:56;17.85;;;12.93;;
51216;SDS011;37283;49.760;8.648;2023-04-06T07:08:23;13.93;;;9.98;;
51216;SDS011;37283;49.760;8.648;2023-04-06T07:10:51;14.30;;;10.27;;
51216;SDS011;37283;49.760;8.648;2023-04-06T07:13:22;17.20;;;10.40;;
51216;SDS011;37283;49.760;8.648;2023-04-06T07:15:53;37.67;;;24.85;;
51216;SDS011;37283;49.760;8.648;2023-04-06T07:18:21;33.83;;;21.65;;
51216;SDS011;37283;49.760;8.648;2023-04-06T07:20:48;25.67;;;17.00;;
51216;SDS011;37283;49.760;8.648;2023-04-06T07:23:16;20.15;;;16.50;;
51216;SDS011;37283;49.760;8.648;2023-04-06T07:25:43;21.35;;;14.73;;
51216;SDS011;37283;49.760;8.648;2023-04-06T07:28:10;18.83;;;12.82;;
51216;SDS011;37283;49.760;8.648;2023-04-06T07:30:38;18.00;;;11.55;;
51216;SDS011;37283;49.760;8.648;2023-04-06T07:33:05;16.50;;;11.45;;
51216;SDS011;37283;49.760;8.648;2023-04-06T07:35:34;14.88;;;10.98;;
51216;SDS011;37283;49.760;8.648;2023-04-06T07:38:02;15.98;;;11.23;;
51216;SDS011;37283;49.760;8.648;2023-04-06T07:40:30;16.35;;;12.10;;
51216;SDS011;37283;49.760;8.648;2023-04-06T07:42:58;31.50;;;21.42;;
51216;SDS011;37283;49.760;8.648;2023-04-06T07:45:24;24.60;;;17.92;;
51216;SDS011;37283;49.760;8.648;2023-04-06T07:47:52;27.63;;;18.88;;
51216;SDS011;37283;49.760;8.648;2023-04-06T07:50:19;20.65;;;14.60;;
51216;SDS011;37283;49.760;8.648;2023-04-06T07:52:46;23.50;;;17.17;;
51216;SDS011;37283;49.760;8.648;2023-04-06T07:55:14;16.98;;;13.50;;
51216;SDS011;37283;49.760;8.648;2023-04-06T07:57:40;16.42;;;11.98;;
51216;SDS011;37283;49.760;8.648;2023-04-06T08:00:07;15.23;;;11.68;;
51216;SDS011;37283;49.760;8.648;2023-04-06T08:02:38;14.20;;;10.05;;
51216;SDS011;37283;49.760;8.648;2023-04-06T08:05:05;14.73;;;9.75;;
51216;SDS011;37283;49.760;8.648;2023-04-06T08:07:32;14.70;;;9.82;;
51216;SDS011;37283;49.760;8.648;2023-04-06T08:09:58;15.15;;;10.00;;
51216;SDS011;37283;49.760;8.648;2023-04-06T08:12:25;12.50;;;9.25;;
51216;SDS011;37283;49.760;8.648;2023-04-06T08:14:51;13.18;;;9.57;;
51216;SDS011;37283;49.760;8.648;2023-04-06T08:17:18;14.52;;;8.50;;
51216;SDS011;37283;49.760;8.648;2023-04-06T08:19:44;12.75;;;8.70;;
51216;SDS011;37283;49.760;8.648;2023-04-06T08:22:11;15.68;;;8.20;;
51216;SDS011;37283;49.760;8.648;2023-04-06T08:24:37;9.18;;;7.35;;
51216;SDS011;37283;49.760;8.648;2023-04-06T08:27:04;11.75;;;8.07;;
51216;SDS011;37283;49.760;8.648;2023-04-06T08:29:30;12.18;;;7.70;;
51216;SDS011;37283;49.760;8.648;2023-04-06T08:31:57;9.32;;;6.90;;
51216;SDS011;37283;49.760;8.648;2023-04-06T08:34:23;13.30;;;8.75;;
51216;SDS011;37283;49.760;8.648;2023-04-06T08:36:50;8.40;;;6.43;;
51216;SDS011;37283;49.760;8.648;2023-04-06T08:39:17;10.80;;;6.40;;
51216;SDS011;37283;49.760;8.648;2023-04-06T08:41:43;10.13;;;7.30;;
51216;SDS011;37283;49.760;8.648;2023-04-06T08:44:10;9.35;;;6.63;;
51216;SDS011;37283;49.760;8.648;2023-04-06T08:46:37;11.38;;;6.80;;
51216;SDS011;37283;49.760;8.648;2023-04-06T08:49:04;11.00;;;7.10;;
51216;SDS011;37283;49.760;8.648;2023-04-06T08:51:33;10.95;;;7.30;;
51216;SDS011;37283;49.760;8.648;2023-04-06T08:54:01;12.10;;;6.88;;
51216;SDS011;37283;49.760;8.648;2023-04-06T08:56:27;12.70;;;7.05;;
51216;SDS011;37283;49.760;8.648;2023-04-06T08:58:54;10.52;;;7.13;;
51216;SDS011;37283;49.760;8.648;2023-04-06T09:01:23;9.85;;;6.82;;
51216;SDS011;37283;49.760;8.648;2023-04-06T09:03:54;9.88;;;7.30;;
51216;SDS011;37283;49.760;8.648;2023-04-06T09:06:23;10.38;;;6.65;;
51216;SDS011;37283;49.760;8.648;2023-04-06T09:11:19;9.70;;;7.03;;
51216;SDS011;37283;49.760;8.648;2023-04-06T09:16:20;11.65;;;7.68;;
51216;SDS011;37283;49.760;8.648;2023-04-06T09:18:47;12.30;;;7.40;;
51216;SDS011;37283;49.760;8.648;2023-04-06T09:21:16;13.05;;;7.80;;
51216;SDS011;37283;49.760;8.648;2023-04-06T09:23:43;12.55;;;7.63;;
51216;SDS011;37283;49.760;8.648;2023-04-06T09:26:11;13.05;;;8.50;;
51216;SDS011;37283;49.760;8.648;2023-04-06T09:31:26;11.25;;;7.68;;
51216;SDS011;37283;49.760;8.648;2023-04-06T09:33:53;12.98;;;8.32;;
51216;SDS011;37283;49.760;8.648;2023-04-06T09:36:29;11.77;;;7.97;;
51216;SDS011;37283;49.760;8.648;2023-04-06T09:39:01;11.18;;;8.10;;
51216;SDS011;37283;49.760;8.648;2023-04-06T09:41:33;13.43;;;8.70;;
51216;SDS011;37283;49.760;8.648;2023-04-06T09:44:08;14.05;;;8.40;;
51216;SDS011;37283;49.760;8.648;2023-04-06T09:46:40;13.02;;;8.50;;
51216;SDS011;37283;49.760;8.648;2023-04-06T09:49:24;11.63;;;7.82;;
51216;SDS011;37283;49.760;8.648;2023-04-06T09:51:57;12.60;;;7.68;;
51216;SDS011;37283;49.760;8.648;2023-04-06T09:54:29;15.70;;;7.93;;
51216;SDS011;37283;49.760;8.648;2023-04-06T09:59:55;12.38;;;7.57;;
51216;SDS011;37283;49.760;8.648;2023-04-06T10:05:46;9.75;;;6.93;;
51216;SDS011;37283;49.760;8.648;2023-04-06T10:08:18;9.95;;;7.45;;
51216;SDS011;37283;49.760;8.648;2023-04-06T10:10:45;9.88;;;7.43;;
51216;SDS011;37283;49.760;8.648;2023-04-06T10:13:12;10.60;;;7.32;;
51216;SDS011;37283;49.760;8.648;2023-04-06T10:15:39;10.82;;;6.72;;
51216;SDS011;37283;49.760;8.648;2023-04-06T10:25:36;12.20;;;6.60;;
51216;SDS011;37283;49.760;8.648;2023-04-06T10:28:05;8.75;;;6.32;;
51216;SDS011;37283;49.760;8.648;2023-04-06T10:30:37;10.18;;;6.38;;
51216;SDS011;37283;49.760;8.648;2023-04-06T10:33:14;12.60;;;7.90;;
51216;SDS011;37283;49.760;8.648;2023-04-06T10:35:42;9.88;;;7.32;;
51216;SDS011;37283;49.760;8.648;2023-04-06T10:38:09;10.43;;;7.55;;
51216;SDS011;37283;49.760;8.648;2023-04-06T10:40:36;9.20;;;7.07;;
51216;SDS011;37283;49.760;8.648;2023-04-06T10:43:11;10.82;;;7.13;;
51216;SDS011;37283;49.760;8.648;2023-04-06T10:45:39;19.52;;;7.95;;
51216;SDS011;37283;49.760;8.648;2023-04-06T10:48:15;10.73;;;7.18;;
51216;SDS011;37283;49.760;8.648;2023-04-06T10:50:43;13.73;;;7.38;;
51216;SDS011;37283;49.760;8.648;2023-04-06T10:53:24;13.88;;;7.82;;
51216;SDS011;37283;49.760;8.648;2023-04-06T10:55:52;9.68;;;7.22;;
51216;SDS011;37283;49.760;8.648;2023-04-06T10:58:23;10.95;;;7.75;;
51216;SDS011;37283;49.760;8.648;2023-04-06T11:00:51;10.95;;;7.80;;
51216;SDS011;37283;49.760;8.648;2023-04-06T11:03:17;10.32;;;8.00;;
51216;SDS011;37283;49.760;8.648;2023-04-06T11:05:45;10.80;;;8.18;;
51216;SDS011;37283;49.760;8.648;2023-04-06T11:08:26;10.63;;;7.45;;
51216;SDS011;37283;49.760;8.648;2023-04-06T11:11:06;12.90;;;8.10;;
51216;SDS011;37283;49.760;8.648;2023-04-06T11:13:45;11.63;;;8.85;;
51216;SDS011;37283;49.760;8.648;2023-04-06T11:16:20;12.07;;;8.48;;
51216;SDS011;37283;49.760;8.648;2023-04-06T11:21:31;12.00;;;8.13;;
51216;SDS011;37283;49.760;8.648;2023-04-06T11:26:54;11.30;;;7.97;;
51216;SDS011;37283;49.760;8.648;2023-04-06T11:29:28;10.88;;;8.30;;
51216;SDS011;37283;49.760;8.648;2023-04-06T11:32:03;11.63;;;7.80;;
51216;SDS011;37283;49.760;8.648;2023-04-06T11:34:32;9.90;;;7.35;;
51216;SDS011;37283;49.760;8.648;2023-04-06T11:37:02;10.73;;;7.57;;
51216;SDS011;37283;49.760;8.648;2023-04-06T11:39:32;11.30;;;7.22;;
51216;SDS011;37283;49.760;8.648;2023-04-06T11:42:04;12.25;;;7.68;;
51216;SDS011;37283;49.760;8.648;2023-04-06T11:44:51;9.60;;;7.70;;
51216;SDS011;37283;49.760;8.648;2023-04-06T11:47:26;10.35;;;7.43;;
51216;SDS011;37283;49.760;8.648;2023-04-06T11:49:54;10.10;;;7.50;;
51216;SDS011;37283;49.760;8.648;2023-04-06T11:52:22;11.52;;;7.55;;
51216;SDS011;37283;49.760;8.648;2023-04-06T11:57:17;10.23;;;7.40;;
51216;SDS011;37283;49.760;8.648;2023-04-06T11:59:44;11.75;;;7.50;;
51216;SDS011;37283;49.760;8.648;2023-04-06T12:02:11;12.30;;;7.13;;
51216;SDS011;37283;49.760;8.648;2023-04-06T12:04:38;9.35;;;7.07;;
51216;SDS011;37283;49.760;8.648;2023-04-06T12:07:05;8.95;;;6.28;;
51216;SDS011;37283;49.760;8.648;2023-04-06T12:09:32;10.88;;;6.85;;
51216;SDS011;37283;49.760;8.648;2023-04-06T12:11:58;9.32;;;6.40;;
51216;SDS011;37283;49.760;8.648;2023-04-06T12:14:25;9.10;;;6.38;;
51216;SDS011;37283;49.760;8.648;2023-04-06T12:16:51;10.32;;;6.10;;
51216;SDS011;37283;49.760;8.648;2023-04-06T12:19:18;8.40;;;6.03;;
51216;SDS011;37283;49.760;8.648;2023-04-06T12:21:44;9.85;;;5.95;;
51216;SDS011;37283;49.760;8.648;2023-04-06T12:24:11;9.02;;;5.53;;
51216;SDS011;37283;49.760;8.648;2023-04-06T12:26:37;8.75;;;5.65;;
51216;SDS011;37283;49.760;8.648;2023-04-06T12:29:04;6.82;;;5.20;;
51216;SDS011;37283;49.760;8.648;2023-04-06T12:31:34;9.60;;;5.78;;
51216;SDS011;37283;49.760;8.648;2023-04-06T12:34:02;8.70;;;6.38;;
51216;SDS011;37283;49.760;8.648;2023-04-06T12:36:29;8.32;;;5.50;;
51216;SDS011;37283;49.760;8.648;2023-04-06T12:38:56;9.98;;;6.20;;
51216;SDS011;37283;49.760;8.648;2023-04-06T12:41:22;10.00;;;6.10;;
51216;SDS011;37283;49.760;8.648;2023-04-06T12:43:49;8.77;;;5.70;;
51216;SDS011;37283;49.760;8.648;2023-04-06T12:46:16;7.80;;;5.38;;
51216;SDS011;37283;49.760;8.648;2023-04-06T12:48:43;8.07;;;6.13;;
51216;SDS011;37283;49.760;8.648;2023-04-06T12:51:09;9.13;;;5.60;;
51216;SDS011;37283;49.760;8.648;2023-04-06T12:53:36;7.00;;;5.60;;
51216;SDS011;37283;49.760;8.648;2023-04-06T12:56:09;8.70;;;5.82;;
51216;SDS011;37283;49.760;8.648;2023-04-06T12:58:38;7.88;;;5.93;;
51216;SDS011;37283;49.760;8.648;2023-04-06T13:01:06;9.65;;;6.03;;
51216;SDS011;37283;49.760;8.648;2023-04-06T13:03:33;9.00;;;6.45;;
51216;SDS011;37283;49.760;8.648;2023-04-06T13:06:00;8.43;;;6.78;;
51216;SDS011;37283;49.760;8.648;2023-04-06T13:08:27;11.35;;;6.57;;
51216;SDS011;37283;49.760;8.648;2023-04-06T13:10:54;9.75;;;5.88;;
51216;SDS011;37283;49.760;8.648;2023-04-06T13:13:22;8.40;;;6.45;;
51216;SDS011;37283;49.760;8.648;2023-04-06T13:15:59;6.85;;;6.00;;
51216;SDS011;37283;49.760;8.648;2023-04-06T13:18:30;7.47;;;6.07;;
51216;SDS011;37283;49.760;8.648;2023-04-06T13:20:57;8.77;;;6.72;;
51216;SDS011;37283;49.760;8.648;2023-04-06T13:23:25;7.45;;;5.80;;
51216;SDS011;37283;49.760;8.648;2023-04-06T13:28:32;8.13;;;6.25;;
51216;SDS011;37283;49.760;8.648;2023-04-06T13:33:28;9.00;;;6.13;;
51216;SDS011;37283;49.760;8.648;2023-04-06T13:35:55;9.88;;;6.47;;
51216;SDS011;37283;49.760;8.648;2023-04-06T13:38:22;8.27;;;6.40;;
51216;SDS011;37283;49.760;8.648;2023-04-06T13:40:51;11.13;;;6.55;;
51216;SDS011;37283;49.760;8.648;2023-04-06T13:43:18;9.50;;;6.80;;
51216;SDS011;37283;49.760;8.648;2023-04-06T13:45:49;9.30;;;7.18;;
51216;SDS011;37283;49.760;8.648;2023-04-06T13:48:24;9.68;;;6.90;;
51216;SDS011;37283;49.760;8.648;2023-04-06T13:50:52;10.73;;;6.57;;
51216;SDS011;37283;49.760;8.648;2023-04-06T13:53:19;8.70;;;6.95;;
51216;SDS011;37283;49.760;8.648;2023-04-06T13:55:52;9.98;;;7.45;;
51216;SDS011;37283;49.760;8.648;2023-04-06T13:58:21;10.95;;;7.05;;
51216;SDS011;37283;49.760;8.648;2023-04-06T14:00:48;10.50;;;7.80;;
51216;SDS011;37283;49.760;8.648;2023-04-06T14:03:14;12.18;;;7.25;;
51216;SDS011;37283;49.760;8.648;2023-04-06T14:05:41;10.30;;;6.63;;
51216;SDS011;37283;49.760;8.648;2023-04-06T14:08:08;11.85;;;7.07;;
51216;SDS011;37283;49.760;8.648;2023-04-06T14:10:38;8.40;;;5.95;;
51216;SDS011;37283;49.760;8.648;2023-04-06T14:13:06;8.40;;;6.32;;
51216;SDS011;37283;49.760;8.648;2023-04-06T14:15:32;9.63;;;7.53;;
51216;SDS011;37283;49.760;8.648;2023-04-06T14:17:59;10.18;;;7.07;;
51216;SDS011;37283;49.760;8.648;2023-04-06T14:20:26;9.55;;;7.78;;
51216;SDS011;37283;49.760;8.648;2023-04-06T14:22:53;10.82;;;7.65;;
51216;SDS011;37283;49.760;8.648;2023-04-06T14:25:20;12.30;;;9.52;;
51216;SDS011;37283;49.760;8.648;2023-04-06T14:27:47;9.32;;;7.30;;
51216;SDS011;37283;49.760;8.648;2023-04-06T14:30:14;8.35;;;7.05;;
51216;SDS011;37283;49.760;8.648;2023-04-06T14:32:41;10.52;;;6.90;;
51216;SDS011;37283;49.760;8.648;2023-04-06T14:35:08;9.00;;;6.40;;
51216;SDS011;37283;49.760;8.648;2023-04-06T14:37:34;13.40;;;7.22;;
51216;SDS011;37283;49.760;8.648;2023-04-06T14:40:01;10.15;;;7.78;;
51216;SDS011;37283;49.760;8.648;2023-04-06T14:42:28;9.80;;;7.07;;
51216;SDS011;37283;49.760;8.648;2023-04-06T14:44:55;10.68;;;7.28;;
51216;SDS011;37283;49.760;8.648;2023-04-06T14:47:22;10.57;;;7.30;;
51216;SDS011;37283;49.760;8.648;2023-04-06T14:49:50;10.75;;;7.75;;
51216;SDS011;37283;49.760;8.648;2023-04-06T14:52:17;10.30;;;7.37;;
51216;SDS011;37283;49.760;8.648;2023-04-06T14:54:43;10.07;;;7.30;;
51216;SDS011;37283;49.760;8.648;2023-04-06T14:57:10;12.13;;;6.85;;
51216;SDS011;37283;49.760;8.648;2023-04-06T14:59:36;9.70;;;7.32;;
51216;SDS011;37283;49.760;8.648;2023-04-06T15:02:05;10.65;;;7.70;;
51216;SDS011;37283;49.760;8.648;2023-04-06T15:04:33;9.52;;;7.00;;
51216;SDS011;37283;49.760;8.648;2023-04-06T15:07:01;12.00;;;7.35;;
51216;SDS011;37283;49.760;8.648;2023-04-06T15:09:27;13.20;;;7.30;;
51216;SDS011;37283;49.760;8.648;2023-04-06T15:11:54;11.70;;;6.35;;
51216;SDS011;37283;49.760;8.648;2023-04-06T15:14:21;9.00;;;5.20;;
51216;SDS011;37283;49.760;8.648;2023-04-06T15:16:48;7.20;;;5.10;;
51216;SDS011;37283;49.760;8.648;2023-04-06T15:19:14;9.15;;;4.93;;
51216;SDS011;37283;49.760;8.648;2023-04-06T15:21:41;7.13;;;4.85;;
51216;SDS011;37283;49.760;8.648;2023-04-06T15:24:07;6.65;;;5.05;;
51216;SDS011;37283;49.760;8.648;2023-04-06T15:26:35;6.18;;;4.20;;